Time;durP1;ratioP1;P1;durP2;ratioP2;P2;SDS_P1;SDS_P2;PMS_P1;PMS_P2;Temp;Humidity;BMP_temperature;BMP_pressure;BME280_temperature;BME280_humidity;BME280_pressure;Samples;Min_cycle;Max_cycle;Signal;HPM_P1;HPM_P2
2021/10/29 00:02:04;;;;;;;;;12.50;12.00;;;;;15.54;58.87;100451.31;5059884;28;45279;-74
2021/10/29 00:04:29;;;;;;;;;14.00;13.50;;;;;15.60;58.67;100462.66;5062399;28;45357;-74
2021/10/29 00:06:55;;;;;;;;;15.50;15.50;;;;;15.56;58.68;100461.97;5062252;28;45310;-74
2021/10/29 00:09:20;;;;;;;;;14.50;13.75;;;;;15.54;58.72;100455.81;5053017;28;45515;-74
2021/10/29 00:11:45;;;;;;;;;11.00;11.00;;;;;15.56;58.93;100461.97;5056227;28;45481;-74
2021/10/29 00:14:11;;;;;;;;;14.25;14.25;;;;;15.61;58.68;100451.81;5062102;28;45426;-74
2021/10/29 00:16:36;;;;;;;;;14.25;12.00;;;;;15.60;58.77;100455.44;5061745;28;45980;-74
2021/10/29 00:19:02;;;;;;;;;13.75;13.75;;;;;15.59;58.94;100452.88;5062183;28;45215;-74
2021/10/29 00:21:28;;;;;;;;;11.50;11.50;;;;;15.57;58.93;100453.81;5065066;28;45354;-74
2021/10/29 00:23:56;;;;;;;;;13.50;12.00;;;;;15.55;59.01;100450.34;5074468;28;45340;-74
2021/10/29 00:26:21;;;;;;;;;12.00;12.00;;;;;15.52;58.96;100445.16;5045038;28;45317;-74
2021/10/29 00:28:47;;;;;;;;;11.00;10.75;;;;;15.53;58.84;100451.38;5061787;28;45475;-74
2021/10/29 00:31:12;;;;;;;;;15.00;11.75;;;;;15.50;59.23;100449.75;5062070;28;45301;-74
2021/10/29 00:33:37;;;;;;;;;13.75;12.00;;;;;15.50;59.27;100443.50;5054849;28;45446;-74
2021/10/29 00:36:03;;;;;;;;;15.75;14.75;;;;;15.49;58.92;100444.47;5055569;28;46502;-74
2021/10/29 00:38:28;;;;;;;;;14.00;13.50;;;;;15.45;58.92;100438.41;5060074;28;45465;-74
2021/10/29 00:40:54;;;;;;;;;14.00;13.00;;;;;15.48;58.95;100438.19;5060540;28;45460;-74
2021/10/29 00:43:20;;;;;;;;;17.00;15.00;;;;;15.48;59.17;100438.19;5048374;28;45287;-74
2021/10/29 00:45:45;;;;;;;;;17.25;13.00;;;;;15.40;59.16;100428.84;5061621;28;46082;-74
2021/10/29 00:48:12;;;;;;;;;11.75;10.00;;;;;15.43;58.97;100434.91;5061423;28;45433;-74
2021/10/29 00:50:39;;;;;;;;;15.50;14.00;;;;;15.19;59.44;100394.16;5061831;28;45355;-74
2021/10/29 00:53:04;;;;;;;;;14.50;14.00;;;;;15.40;59.15;100427.00;5061551;28;45323;-74
2021/10/29 00:55:29;;;;;;;;;15.25;14.00;;;;;15.41;59.18;100431.44;5061527;28;45313;-74
2021/10/29 00:57:55;;;;;;;;;14.00;13.50;;;;;15.35;59.40;100421.91;5060654;28;45529;-74
2021/10/29 01:00:21;;;;;;;;;12.50;12.50;;;;;15.36;59.31;100425.47;5061608;28;45528;-74
2021/10/29 01:02:46;;;;;;;;;16.75;14.00;;;;;15.33;59.23;100423.81;5061363;28;45315;-74
2021/10/29 01:05:12;;;;;;;;;15.00;14.00;;;;;15.29;59.19;100410.66;5061368;28;45984;-74
2021/10/29 01:07:37;;;;;;;;;15.50;14.25;;;;;15.33;59.31;100429.19;5061327;28;45441;-74
2021/10/29 01:10:05;;;;;;;;;13.50;13.25;;;;;15.33;59.27;100428.31;5059423;28;45455;-74
2021/10/29 01:12:30;;;;;;;;;13.25;12.00;;;;;15.31;59.55;100424.88;5056581;28;45478;-74
2021/10/29 01:14:58;;;;;;;;;12.00;12.00;;;;;15.26;58.98;100409.00;5051443;28;47115;-73
2021/10/29 01:17:25;;;;;;;;;14.00;12.50;;;;;15.30;59.31;100412.38;5060965;28;45524;-73
2021/10/29 01:19:53;;;;;;;;;12.00;12.00;;;;;15.33;59.46;100401.44;5061384;28;45314;-73
2021/10/29 01:22:18;;;;;;;;;12.75;12.75;;;;;15.24;59.35;100391.22;5061104;28;45265;-73
2021/10/29 01:24:44;;;;;;;;;13.75;11.00;;;;;15.24;59.31;100391.22;5061055;28;46505;-74
2021/10/29 01:27:11;;;;;;;;;12.75;11.75;;;;;15.27;59.25;100396.41;5060817;28;45361;-74
2021/10/29 01:29:38;;;;;;;;;17.25;16.00;;;;;15.28;59.44;100404.38;5056301;28;45223;-74
2021/10/29 01:32:09;;;;;;;;;11.00;11.00;;;;;15.29;59.27;100405.28;5047933;28;45477;-74
2021/10/29 01:34:36;;;;;;;;;13.00;13.00;;;;;15.17;59.35;100386.19;5060972;28;46467;-74
2021/10/29 01:37:04;;;;;;;;;13.00;11.75;;;;;15.22;59.52;100387.72;5061101;28;45502;-74
2021/10/29 01:39:30;;;;;;;;;11.00;10.50;;;;;15.22;59.23;100390.41;5052353;28;45327;-74
2021/10/29 01:41:55;;;;;;;;;16.00;13.75;;;;;15.20;59.30;100387.81;5051002;28;45769;-74
2021/10/29 01:44:21;;;;;;;;;13.00;13.00;;;;;15.17;59.50;100388.03;5053697;28;46277;-74
2021/10/29 01:46:46;;;;;;;;;13.25;12.25;;;;;15.15;59.60;100377.34;5060409;28;45309;-74
2021/10/29 01:49:11;;;;;;;;;14.00;13.00;;;;;15.11;59.30;100375.78;5061010;28;45427;-74
2021/10/29 01:51:36;;;;;;;;;15.25;13.50;;;;;15.13;59.78;100373.84;5047428;28;45575;-74
2021/10/29 01:54:02;;;;;;;;;14.00;14.00;;;;;15.06;59.71;100361.72;5060759;28;46669;-74
2021/10/29 01:56:28;;;;;;;;;12.50;11.50;;;;;15.08;59.55;100370.56;5060641;28;45251;-74
2021/10/29 01:58:53;;;;;;;;;11.00;11.00;;;;;15.06;59.70;100360.88;5059280;28;45354;-74
2021/10/29 02:01:19;;;;;;;;;11.25;11.00;;;;;15.06;59.63;100368.94;5058821;28;45409;-74
2021/10/29 02:03:44;;;;;;;;;14.50;12.25;;;;;15.06;59.57;100361.72;5060414;28;45254;-74
2021/10/29 02:06:10;;;;;;;;;10.75;10.75;;;;;15.03;59.58;100351.16;5060398;28;45326;-74
2021/10/29 02:08:35;;;;;;;;;11.50;11.50;;;;;15.04;59.65;100357.41;5059733;28;45226;-74
2021/10/29 02:11:01;;;;;;;;;14.25;12.50;;;;;15.00;59.80;100354.00;5053401;28;45225;-74
2021/10/29 02:13:26;;;;;;;;;10.50;10.50;;;;;14.97;59.89;100359.59;5060286;28;46012;-74
2021/10/29 02:15:53;;;;;;;;;12.00;11.00;;;;;15.01;59.83;100355.75;5060264;28;45243;-74
2021/10/29 02:18:18;;;;;;;;;9.75;9.75;;;;;14.98;59.70;100350.56;5057155;28;45333;-74
2021/10/29 02:20:44;;;;;;;;;11.00;11.00;;;;;14.95;59.78;100348.03;5060429;28;45311;-74
2021/10/29 02:23:11;;;;;;;;;14.25;12.00;;;;;14.88;59.98;100330.53;5060160;28;46408;-74
2021/10/29 02:25:43;;;;;;;;;14.00;12.50;;;;;14.93;59.87;100336.50;5059379;28;45531;-74
2021/10/29 02:28:09;;;;;;;;;12.75;11.25;;;;;14.92;59.94;100332.13;5060153;28;45331;-73
2021/10/29 02:30:34;;;;;;;;;12.75;11.75;;;;;14.89;59.71;100329.59;5060327;28;45453;-74
2021/10/29 02:32:59;;;;;;;;;10.50;10.50;;;;;14.90;59.95;100326.81;5059911;28;45371;-74
2021/10/29 02:35:25;;;;;;;;;13.25;13.00;;;;;14.90;59.63;100328.63;5059932;28;45369;-73
2021/10/29 02:37:50;;;;;;;;;15.50;13.50;;;;;14.91;59.75;100328.53;5055180;28;45320;-73
2021/10/29 02:40:15;;;;;;;;;12.00;11.75;;;;;14.91;59.67;100333.06;5059235;28;45569;-73
2021/10/29 02:42:41;;;;;;;;;10.50;10.50;;;;;14.92;59.67;100332.13;5058509;28;45667;-74
2021/10/29 02:45:06;;;;;;;;;10.75;10.00;;;;;14.93;59.78;100323.06;5059852;28;45295;-74
2021/10/29 02:47:32;;;;;;;;;11.00;9.75;;;;;14.84;59.33;100311.03;5046809;28;45349;-74
2021/10/29 02:49:57;;;;;;;;;9.50;9.50;;;;;14.84;59.47;100315.56;5059323;28;45397;-74
2021/10/29 02:52:23;;;;;;;;;11.75;11.75;;;;;14.84;59.54;100318.25;5057778;28;46316;-74
2021/10/29 02:54:49;;;;;;;;;12.00;11.25;;;;;14.86;59.72;100321.69;5059276;28;45310;-74
2021/10/29 02:57:15;;;;;;;;;12.75;12.75;;;;;14.78;59.64;100306.00;5059855;28;45420;-74
2021/10/29 02:59:40;;;;;;;;;11.25;9.00;;;;;14.79;59.55;100315.81;5059586;28;45655;-74
2021/10/29 03:02:06;;;;;;;;;13.00;11.00;;;;;14.65;59.67;100289.75;5058205;28;46315;-74
2021/10/29 03:04:32;;;;;;;;;11.00;11.00;;;;;14.72;59.44;100296.47;5059438;28;45243;-74
2021/10/29 03:06:57;;;;;;;;;10.00;9.75;;;;;14.69;59.64;100291.28;5056934;28;46893;-74
2021/10/29 03:09:23;;;;;;;;;9.75;8.50;;;;;14.69;59.82;100293.97;5049728;28;45568;-74
2021/10/29 03:11:48;;;;;;;;;10.25;10.25;;;;;14.67;59.76;100284.25;5051045;28;46278;-74
2021/10/29 03:14:13;;;;;;;;;13.50;12.25;;;;;14.66;59.86;100288.75;5046871;28;45337;-74
2021/10/29 03:16:39;;;;;;;;;10.00;10.00;;;;;14.66;59.46;100282.53;5059230;28;45451;-74
2021/10/29 03:19:04;;;;;;;;;14.00;11.75;;;;;14.41;59.92;100247.13;5059437;28;45562;-74
2021/10/29 03:21:30;;;;;;;;;9.00;8.50;;;;;14.65;59.82;100281.69;5057359;28;47366;-74
2021/10/29 03:23:55;;;;;;;;;9.25;9.00;;;;;14.58;59.71;100265.00;5058809;28;45431;-73
2021/10/29 03:26:21;;;;;;;;;11.00;9.50;;;;;14.65;59.42;100276.31;5057278;28;45502;-72
2021/10/29 03:28:46;;;;;;;;;11.00;10.00;;;;;14.64;59.38;100270.03;5057871;28;45467;-74
2021/10/29 03:31:11;;;;;;;;;7.50;7.00;;;;;14.61;59.39;100259.47;5057774;28;45513;-74
2021/10/29 03:33:39;;;;;;;;;8.75;8.75;;;;;14.62;59.42;100260.34;5057785;28;45365;-73
2021/10/29 03:36:06;;;;;;;;;10.25;9.00;;;;;14.62;59.49;100260.34;5050092;28;45329;-74
2021/10/29 03:38:44;;;;;;;;;8.50;7.50;;;;;14.60;59.48;100254.19;5062239;28;45398;-73
2021/10/29 03:41:10;;;;;;;;;9.00;8.50;;;;;14.60;59.41;100243.44;5062722;28;45409;-74
2021/10/29 03:43:46;;;;;;;;;9.50;8.00;;;;;14.57;59.35;100247.16;5062423;28;45578;-73
2021/10/29 03:46:22;;;;;;;;;8.75;8.75;;;;;14.55;59.34;100248.19;5058869;28;45400;-74
2021/10/29 03:51:39;;;;;;;;;9.50;9.50;;;;;14.46;59.60;100237.00;5062560;28;46049;-73
2021/10/29 03:56:41;;;;;;;;;11.00;9.50;;;;;14.45;59.62;100237.97;5062659;28;45316;-74
2021/10/29 03:59:10;;;;;;;;;9.00;8.75;;;;;14.48;59.68;100236.06;5062167;28;45304;-74
2021/10/29 04:01:36;;;;;;;;;7.75;7.25;;;;;14.52;59.44;100245.69;5062193;28;45346;-74
2021/10/29 04:04:01;;;;;;;;;9.75;9.50;;;;;14.45;59.59;100229.06;5062119;28;45249;-74
2021/10/29 04:06:26;;;;;;;;;11.00;9.00;;;;;14.50;59.67;100235.03;5060656;28;45267;-74
2021/10/29 04:08:52;;;;;;;;;9.50;9.25;;;;;14.46;59.38;100226.25;5055724;28;45476;-74
2021/10/29 04:11:23;;;;;;;;;9.25;9.25;;;;;14.49;59.68;100221.69;5062211;28;45367;-74
2021/10/29 04:13:49;;;;;;;;;10.25;7.25;;;;;14.48;59.76;100215.44;5062100;28;45244;-74
2021/10/29 04:16:14;;;;;;;;;11.75;10.00;;;;;14.52;59.67;100210.78;5062240;28;45262;-74
2021/10/29 04:18:40;;;;;;;;;8.50;7.50;;;;;14.49;59.77;100201.06;5061907;28;45627;-74
2021/10/29 04:21:05;;;;;;;;;8.00;7.25;;;;;14.51;59.79;100207.19;5062123;28;46290;-74
2021/10/29 04:23:31;;;;;;;;;10.00;8.75;;;;;14.50;59.91;100201.91;5062146;28;45275;-74
2021/10/29 04:25:57;;;;;;;;;9.50;9.50;;;;;14.48;59.86;100195.78;5062331;28;45492;-74
2021/10/29 04:28:23;;;;;;;;;10.00;9.75;;;;;14.48;59.96;100198.47;5061606;28;45334;-74
2021/10/29 04:30:51;;;;;;;;;9.75;8.25;;;;;14.52;59.70;100200.03;5057310;28;48345;-74
2021/10/29 04:33:16;;;;;;;;;11.25;8.50;;;;;14.49;59.95;100192.16;5052385;28;45453;-74
2021/10/29 04:35:45;;;;;;;;;9.50;9.50;;;;;14.51;60.07;100196.47;5061481;28;45228;-74
2021/10/29 04:38:12;;;;;;;;;9.75;9.75;;;;;14.41;59.99;100185.38;5061916;28;45255;-74
2021/10/29 04:40:38;;;;;;;;;14.00;11.00;;;;;14.48;59.85;100193.94;5060547;28;48496;-74
2021/10/29 04:43:05;;;;;;;;;9.50;9.00;;;;;14.46;59.69;100193.19;5061750;28;45591;-74
2021/10/29 04:45:31;;;;;;;;;6.00;6.00;;;;;14.46;60.20;100196.72;5060583;28;45322;-74
2021/10/29 04:47:57;;;;;;;;;8.50;8.50;;;;;14.49;60.08;100197.53;5049407;28;45530;-74
2021/10/29 04:50:22;;;;;;;;;8.75;8.75;;;;;14.48;60.04;100195.78;5059440;28;46012;-74
2021/10/29 04:52:48;;;;;;;;;10.75;9.25;;;;;14.46;60.18;100193.19;5060409;28;45357;-74
2021/10/29 04:55:13;;;;;;;;;10.25;9.25;;;;;14.49;60.24;100197.53;5061784;28;45308;-74
2021/10/29 04:57:39;;;;;;;;;12.25;10.75;;;;;14.49;60.02;100186.78;5061308;28;45497;-74
2021/10/29 05:00:07;;;;;;;;;10.50;9.00;;;;;14.50;60.22;100191.19;5061440;28;46288;-74
2021/10/29 05:02:33;;;;;;;;;10.50;9.50;;;;;14.42;60.24;100181.75;5061354;28;45517;-74
2021/10/29 05:04:59;;;;;;;;;10.00;10.00;;;;;14.50;60.41;100185.81;5059377;28;45420;-73
2021/10/29 05:07:24;;;;;;;;;10.50;8.75;;;;;14.50;59.88;100180.44;5054744;28;45376;-74
2021/10/29 05:09:50;;;;;;;;;11.75;9.75;;;;;14.51;60.36;100179.50;5061148;28;46610;-74
2021/10/29 05:12:15;;;;;;;;;8.75;8.00;;;;;14.50;60.34;100183.13;5061501;28;45301;-74
2021/10/29 05:14:40;;;;;;;;;9.00;8.00;;;;;14.50;60.41;100169.69;5061190;28;45556;-74
2021/10/29 05:17:06;;;;;;;;;9.75;9.00;;;;;14.49;60.32;100157.25;5061355;28;45356;-74
2021/10/29 05:19:31;;;;;;;;;9.75;8.50;;;;;14.46;60.53;100160.94;5061062;28;45353;-74
2021/10/29 05:21:57;;;;;;;;;9.25;8.25;;;;;14.50;60.15;100158.94;5061293;28;45381;-74
2021/10/29 05:24:22;;;;;;;;;7.50;7.50;;;;;14.49;60.41;100155.41;5061430;28;45419;-74
2021/10/29 05:26:48;;;;;;;;;8.75;8.75;;;;;14.46;60.34;100153.75;5059696;28;45287;-74
2021/10/29 05:29:13;;;;;;;;;11.00;8.50;;;;;14.49;60.19;100149.19;5060656;28;46123;-74
2021/10/29 05:31:39;;;;;;;;;9.75;9.25;;;;;14.40;60.55;100137.13;5050659;28;45328;-74
2021/10/29 05:34:04;;;;;;;;;10.25;10.00;;;;;14.41;60.04;100141.56;5057847;28;45224;-74
2021/10/29 05:36:30;;;;;;;;;10.75;8.75;;;;;14.51;60.47;100150.81;5054799;28;45464;-74
2021/10/29 05:38:55;;;;;;;;;9.50;9.50;;;;;14.52;60.38;100149.00;5060798;28;45289;-74
2021/10/29 05:41:20;;;;;;;;;8.50;8.50;;;;;14.46;59.96;100148.38;5060890;28;45308;-74
2021/10/29 05:43:46;;;;;;;;;8.50;8.25;;;;;14.43;60.55;100142.31;5060875;28;45347;-74
2021/10/29 05:46:11;;;;;;;;;8.25;7.75;;;;;14.45;60.52;100143.97;5060655;28;45417;-74
2021/10/29 05:48:40;;;;;;;;;10.25;9.75;;;;;14.48;60.59;100148.28;5042179;28;47015;-74
2021/10/29 05:51:09;;;;;;;;;10.25;9.75;;;;;14.48;60.43;100150.97;5059422;28;46212;-74
2021/10/29 05:53:50;;;;;;;;;9.00;9.00;;;;;14.50;60.65;100148.22;5060011;28;45274;-74
2021/10/29 05:56:17;;;;;;;;;9.00;9.00;;;;;14.49;60.36;100139.28;5060705;28;45311;-74
2021/10/29 05:58:42;;;;;;;;;9.25;8.25;;;;;14.52;60.41;100130.22;5047307;28;45297;-74
2021/10/29 06:01:07;;;;;;;;;11.50;10.25;;;;;14.50;60.39;100122.25;5059300;28;45222;-74
2021/10/29 06:03:33;;;;;;;;;12.00;11.00;;;;;14.56;60.28;100127.22;5060678;28;45361;-74
2021/10/29 06:05:58;;;;;;;;;12.75;10.50;;;;;14.54;60.20;100129.16;5050999;28;46600;-74
2021/10/29 06:08:25;;;;;;;;;10.00;9.00;;;;;14.50;60.68;100115.97;5060343;28;46107;-74
2021/10/29 06:10:51;;;;;;;;;8.75;8.75;;;;;14.56;60.21;100121.00;5060639;28;45262;-74
2021/10/29 06:13:16;;;;;;;;;5.50;5.00;;;;;14.57;60.14;100122.75;5060522;28;45226;-74
2021/10/29 06:15:43;;;;;;;;;10.00;9.00;;;;;14.56;60.32;100121.84;5060365;28;45442;-74
2021/10/29 06:18:11;;;;;;;;;7.50;7.25;;;;;14.59;60.48;100123.53;5060230;28;45346;-72
2021/10/29 06:20:37;;;;;;;;;10.00;9.25;;;;;14.58;60.49;100119.97;5056808;28;45777;-74
2021/10/29 06:23:06;;;;;;;;;5.50;5.50;;;;;14.55;60.35;100103.16;5055824;28;46432;-78
2021/10/29 06:25:40;;;;;;;;;9.75;8.50;;;;;14.60;60.41;100106.47;5055064;28;45296;-86
2021/10/29 06:28:20;;;;;;;;;8.25;8.25;;;;;14.60;60.59;100107.34;5059763;28;46614;-86
2021/10/29 06:30:47;;;;;;;;;9.50;9.00;;;;;14.55;60.51;100100.47;5056813;28;45550;-86
2021/10/29 06:33:20;;;;;;;;;9.75;8.25;;;;;14.60;60.45;100106.47;5049959;28;45397;-89
2021/10/29 06:35:46;;;;;;;;;9.00;9.00;;;;;14.57;60.48;100110.16;5059963;28;45331;-88
2021/10/29 06:38:12;;;;;;;;;10.00;8.75;;;;;14.60;60.27;100101.97;5059994;28;45435;-87
2021/10/29 06:40:44;;;;;;;;;9.75;8.50;;;;;14.61;60.37;100103.69;5060010;28;45512;-85
2021/10/29 06:43:21;;;;;;;;;9.00;8.00;;;;;14.61;60.38;100103.69;5060076;28;45428;-77
2021/10/29 06:46:12;;;;;;;;;9.25;9.25;;;;;14.60;60.43;100101.09;5046788;28;46404;-80
2021/10/29 06:49:05;;;;;;;;;10.00;10.00;;;;;14.64;60.27;100103.50;5059383;28;46075;-77
2021/10/29 07:40:33;;;;;;;;;10.25;7.75;;;;;14.79;60.53;100107.09;5062592;28;45456;-75
2021/10/29 07:43:01;;;;;;;;;8.50;8.00;;;;;14.80;60.90;100107.94;5062258;28;46363;-75
2021/10/29 07:45:28;;;;;;;;;7.75;5.00;;;;;14.81;60.52;100109.69;5062506;28;45500;-75
2021/10/29 07:47:58;;;;;;;;;7.50;7.00;;;;;14.78;60.45;100101.81;5053718;28;45291;-75
2021/10/29 07:50:25;;;;;;;;;9.00;7.00;;;;;14.85;60.76;100115.75;5061294;28;45517;-75
2021/10/29 07:52:53;;;;;;;;;8.75;8.50;;;;;14.87;60.47;100105.75;5062497;28;46020;-75
2021/10/29 07:55:22;;;;;;;;;9.50;8.00;;;;;14.88;60.70;100113.72;5062187;28;45514;-75
2021/10/29 07:57:48;;;;;;;;;7.75;7.75;;;;;14.90;60.59;100111.84;5062286;28;45268;-74
2021/10/29 08:00:16;;;;;;;;;4.75;4.00;;;;;14.88;60.77;100118.25;5059753;28;45604;-76
2021/10/29 08:02:46;;;;;;;;;6.25;6.25;;;;;14.94;60.65;100132.19;5062194;28;46084;-76
2021/10/29 08:05:11;;;;;;;;;7.00;7.00;;;;;14.90;60.75;100114.53;5062258;28;45516;-75
2021/10/29 08:07:37;;;;;;;;;8.00;5.00;;;;;14.92;60.65;100114.44;5062287;28;45488;-75
2021/10/29 08:10:03;;;;;;;;;7.25;6.75;;;;;15.00;60.69;100133.63;5062396;28;45255;-75
2021/10/29 08:12:30;;;;;;;;;10.00;8.00;;;;;15.02;60.71;100131.72;5061976;28;46946;-75
2021/10/29 08:14:56;;;;;;;;;8.75;8.00;;;;;15.04;60.62;100135.19;5062196;28;45325;-73
2021/10/29 08:17:22;;;;;;;;;6.00;6.00;;;;;15.04;60.51;100137.00;5062061;28;45330;-73
2021/10/29 08:19:47;;;;;;;;;6.25;6.25;;;;;15.06;60.71;100127.03;5062234;28;45319;-74
2021/10/29 08:22:13;;;;;;;;;7.00;7.00;;;;;15.12;60.53;100138.28;5060889;28;46422;-77
2021/10/29 08:24:39;;;;;;;;;8.25;8.25;;;;;15.11;60.62;100131.16;5062017;28;45341;-75
2021/10/29 08:27:07;;;;;;;;;12.00;7.00;;;;;15.14;60.52;100133.66;5061961;28;45351;-75
2021/10/29 08:29:32;;;;;;;;;5.75;5.75;;;;;15.16;60.29;100131.72;5061707;28;45553;-73
2021/10/29 08:31:59;;;;;;;;;4.75;4.75;;;;;15.15;60.38;100135.41;5048754;28;45965;-74
2021/10/29 08:34:26;;;;;;;;;6.25;6.25;;;;;15.12;60.36;100135.59;5061356;28;45342;-75
2021/10/29 08:36:57;;;;;;;;;7.00;7.00;;;;;15.12;60.46;100119.47;5062036;28;45317;-75
2021/10/29 08:39:23;;;;;;;;;7.25;6.25;;;;;15.22;60.53;100143.06;5041469;28;45323;-74
2021/10/29 08:41:48;;;;;;;;;6.00;5.50;;;;;15.22;60.52;100137.69;5055705;28;45367;-74
2021/10/29 08:44:15;;;;;;;;;5.50;5.50;;;;;15.24;60.40;100150.09;5061454;28;45492;-74
2021/10/29 08:46:42;;;;;;;;;6.75;6.50;;;;;15.22;60.66;100138.56;5052298;28;45477;-74
2021/10/29 08:49:09;;;;;;;;;6.75;6.00;;;;;15.26;60.54;100147.31;5060179;28;45322;-74
2021/10/29 08:51:35;;;;;;;;;9.50;8.00;;;;;15.31;60.53;100142.53;5061295;28;45256;-75
2021/10/29 08:54:01;;;;;;;;;6.25;5.25;;;;;15.30;60.35;100138.09;5060462;28;45484;-74
2021/10/29 08:56:28;;;;;;;;;6.00;6.00;;;;;15.32;60.47;100153.19;5061484;28;45338;-74
2021/10/29 08:59:18;;;;;;;;;5.25;5.00;;;;;15.33;60.31;100144.13;5061130;28;45342;-74
2021/10/29 09:01:51;;;;;;;;;5.00;5.00;;;;;15.35;60.23;100139.56;5059896;28;46884;-74
2021/10/29 09:04:22;;;;;;;;;5.00;5.00;;;;;15.33;60.39;100127.16;5061368;28;45357;-73
2021/10/29 09:07:05;;;;;;;;;7.00;7.00;;;;;15.37;60.50;100134.94;5049662;28;45444;-72
2021/10/29 09:10:00;;;;;;;;;8.00;8.00;;;;;15.34;60.57;100135.13;5060052;28;45484;-72
2021/10/29 09:33:07;;;;;;;;;6.50;6.50;;;;;15.55;60.66;100143.69;5045354;28;45366;-72
2021/10/29 09:35:36;;;;;;;;;7.25;6.75;;;;;15.61;60.47;100150.50;5060369;28;45356;-72
2021/10/29 09:38:05;;;;;;;;;6.25;6.25;;;;;15.63;60.28;100156.63;5060234;28;45550;-72
2021/10/29 09:40:35;;;;;;;;;7.00;5.75;;;;;15.63;60.34;100145.03;5047288;28;45345;-72
2021/10/29 09:43:03;;;;;;;;;8.00;8.00;;;;;15.66;60.46;100136.75;5058831;28;45467;-72
2021/10/29 09:45:30;;;;;;;;;6.00;6.00;;;;;15.72;60.42;100147.16;5060359;28;45528;-72
2021/10/29 09:48:39;;;;;;;;;6.00;6.00;;;;;15.74;60.29;100140.69;5056157;28;45398;-72
2021/10/29 09:51:08;;;;;;;;;6.50;6.50;;;;;15.77;60.31;100145.06;5040840;28;45383;-72
2021/10/29 09:56:46;;;;;;;;;6.00;5.00;;;;;15.73;60.40;100130.88;5040737;28;45433;-72
2021/10/29 09:59:11;;;;;;;;;6.50;6.50;;;;;15.84;60.29;100148.22;5060238;28;45440;-72
2021/10/29 10:01:37;;;;;;;;;7.75;5.75;;;;;15.86;60.50;100152.53;5060394;28;45413;-72
2021/10/29 10:04:05;;;;;;;;;8.00;7.25;;;;;15.89;60.58;100146.09;5060517;28;45443;-71
2021/10/29 10:06:39;;;;;;;;;7.75;7.75;;;;;15.94;60.65;100168.19;5060219;28;46370;-74
2021/10/29 10:09:08;;;;;;;;;9.00;8.25;;;;;15.94;60.74;100165.50;5060543;28;45604;-74
2021/10/29 10:11:35;;;;;;;;;6.00;6.00;;;;;16.00;60.71;100169.63;5058885;28;45318;-71
2021/10/29 10:14:04;;;;;;;;;8.00;6.25;;;;;16.03;61.06;100161.34;5060188;28;45165;-71
2021/10/29 10:16:31;;;;;;;;;6.00;6.00;;;;;16.02;61.44;100156.91;5059986;28;46271;-74
2021/10/29 10:18:57;;;;;;;;;8.00;8.00;;;;;16.09;61.48;100172.59;5058905;28;45351;-74
2021/10/29 10:21:25;;;;;;;;;6.00;5.00;;;;;16.07;61.73;100174.53;5060518;28;45447;-74
2021/10/29 10:23:54;;;;;;;;;6.50;5.00;;;;;16.07;62.44;100170.94;5060293;28;45349;-74
2021/10/29 10:45:56;;;;;;;;;7.75;7.75;;;;;16.10;64.65;100165.38;5046080;28;45309;-73
2021/10/29 10:48:31;;;;;;;;;9.25;7.50;;;;;16.01;64.40;100158.75;5059415;28;45607;-72
2021/10/29 10:54:11;;;;;;;;;8.50;8.50;;;;;16.04;64.80;100153.19;5047132;28;45479;-73
2021/10/29 10:59:41;;;;;;;;;9.00;8.00;;;;;16.07;64.77;100168.25;5059699;28;45240;-72
2021/10/29 11:10:58;;;;;;;;;11.00;9.25;;;;;16.10;65.39;100182.41;5057091;28;45409;-73
2021/10/29 11:13:26;;;;;;;;;8.50;8.00;;;;;16.11;65.61;100180.56;5057739;28;45148;-72
2021/10/29 11:16:00;;;;;;;;;7.75;7.75;;;;;16.09;65.92;100175.28;5058653;28;45421;-73
2021/10/29 11:18:32;;;;;;;;;7.00;7.00;;;;;16.08;65.94;100167.31;5057648;28;45350;-73
2021/10/29 11:21:19;;;;;;;;;7.75;7.50;;;;;16.07;66.01;100161.06;5054165;28;46067;-73
2021/10/29 11:23:55;;;;;;;;;10.00;8.75;;;;;16.09;66.30;100167.22;5074709;28;45765;-73
2021/10/29 11:26:25;;;;;;;;;8.75;8.75;;;;;16.08;65.86;100164.63;5059162;28;45516;-73
2021/10/29 11:28:54;;;;;;;;;11.25;11.25;;;;;16.05;66.26;100144.13;5056576;28;45416;-73
2021/10/29 11:31:31;;;;;;;;;8.75;8.75;;;;;16.11;66.47;100153.66;5055018;28;46074;-73
2021/10/29 11:34:03;;;;;;;;;9.25;9.25;;;;;16.05;66.57;100140.56;5053912;28;45632;-73
2021/10/29 11:36:37;;;;;;;;;11.25;11.00;;;;;16.08;67.28;100145.78;5054703;28;45340;-73
2021/10/29 11:39:09;;;;;;;;;10.25;10.25;;;;;16.03;66.86;100140.69;5043583;28;45442;-73
2021/10/29 11:41:37;;;;;;;;;13.00;10.50;;;;;15.97;66.91;100127.63;5041985;28;46992;-73
2021/10/29 11:44:18;;;;;;;;;9.50;9.50;;;;;16.04;66.99;100137.03;5045452;28;45711;-73
2021/10/29 11:46:45;;;;;;;;;8.75;8.75;;;;;16.05;67.04;100119.03;5045413;28;45421;-73
2021/10/29 11:49:15;;;;;;;;;10.75;9.25;;;;;16.09;67.52;100120.59;5044428;28;46656;-73
2021/10/29 11:51:42;;;;;;;;;11.75;11.25;;;;;16.08;67.32;100124.22;5043493;28;45581;-73
2021/10/29 11:54:34;;;;;;;;;11.75;11.25;;;;;16.09;67.52;100120.59;5044175;28;45779;-73
2021/10/29 11:57:21;;;;;;;;;8.00;7.50;;;;;16.03;67.32;100110.22;5046020;28;45462;-73
2021/10/29 12:00:45;;;;;;;;;8.00;8.00;;;;;16.09;67.23;100109.81;5043978;28;45788;-74
2021/10/29 12:08:19;;;;;;;;;10.25;10.25;;;;;16.16;67.27;100123.75;5044036;28;46199;-73
2021/10/29 12:10:45;;;;;;;;;11.75;9.75;;;;;16.18;67.16;100116.41;5050424;28;45629;-73
2021/10/29 12:13:11;;;;;;;;;9.00;9.00;;;;;16.18;67.29;100119.13;5057653;28;46079;-73
2021/10/29 12:15:37;;;;;;;;;9.25;8.75;;;;;16.20;67.46;100115.34;5053866;28;45742;-73
2021/10/29 12:20:35;;;;;;;;;9.75;9.75;;;;;16.17;67.24;100103.91;5055805;28;45804;-74
2021/10/29 12:23:15;;;;;;;;;12.25;11.25;;;;;16.21;67.97;100116.22;5055035;28;45741;-73
2021/10/29 13:03:46;;;;;;;;;11.00;11.00;;;;;16.41;67.72;100053.81;5060975;28;45412;-73
2021/10/29 13:06:16;;;;;;;;;11.75;9.75;;;;;16.48;67.38;100062.34;5060996;28;45510;-73
2021/10/29 13:08:42;;;;;;;;;9.50;9.50;;;;;16.52;67.21;100052.19;5060816;28;45497;-73
2021/10/29 13:11:12;;;;;;;;;12.00;10.00;;;;;16.54;67.41;100082.59;5048600;28;45390;-73
2021/10/29 13:13:46;;;;;;;;;11.00;10.00;;;;;16.50;67.19;100073.84;5061206;28;45357;-73
2021/10/29 13:16:15;;;;;;;;;11.25;11.00;;;;;16.48;67.36;100084.72;5060749;28;45432;-73
2021/10/29 13:24:37;;;;;;;;;12.00;12.00;;;;;16.52;67.20;100092.63;5061234;28;45259;-73
2021/10/29 13:51:56;;;;;;;;;10.75;10.00;;;;;16.48;66.94;100113.50;5060363;28;45313;-73
2021/10/29 13:57:03;;;;;;;;;11.50;7.75;;;;;16.47;67.15;100111.78;5056690;28;45378;-73
2021/10/29 14:29:24;;;;;;;;;11.50;11.50;;;;;16.36;68.83;100131.34;5059876;28;45234;-74
2021/10/29 14:31:53;;;;;;;;;12.50;12.50;;;;;16.38;68.74;100115.94;5058570;28;47189;-74
2021/10/29 14:34:24;;;;;;;;;14.00;11.75;;;;;16.38;68.60;100110.56;5059908;28;45399;-74
2021/10/29 14:36:56;;;;;;;;;10.25;10.25;;;;;16.43;68.71;100123.72;5060204;28;45391;-74
2021/10/29 14:41:58;;;;;;;;;11.00;10.25;;;;;16.47;68.81;100146.78;5059880;28;45397;-74
2021/10/29 14:44:31;;;;;;;;;12.75;11.25;;;;;16.40;68.81;100145.47;5053643;28;45418;-74
2021/10/29 14:47:16;;;;;;;;;13.25;10.25;;;;;16.40;69.06;100129.31;5057140;28;45334;-74
2021/10/29 14:50:09;;;;;;;;;11.25;11.00;;;;;16.36;69.21;100136.75;5055238;28;45665;-74
2021/10/29 15:03:24;;;;;;;;;11.75;11.00;;;;;16.36;69.40;100146.66;5059405;28;45313;-74
2021/10/29 15:46:07;;;;;;;;;12.25;10.25;;;;;16.26;70.08;100132.94;5062451;28;45238;-70
2021/10/29 15:48:43;;;;;;;;;11.00;11.00;;;;;16.23;70.10;100134.00;5062447;28;45568;-70
2021/10/29 15:51:08;;;;;;;;;11.50;11.25;;;;;16.24;70.16;100151.03;5062579;28;45244;-70
2021/10/29 15:53:34;;;;;;;;;12.00;10.75;;;;;16.25;70.21;100158.13;5062484;28;45444;-70
2021/10/29 15:56:09;;;;;;;;;12.25;11.25;;;;;16.21;70.23;100152.09;5062335;28;46038;-70
2021/10/29 15:58:41;;;;;;;;;9.75;9.50;;;;;16.18;70.44;100146.03;5062349;28;45457;-70